sensor_id;sensor_type;location;lat;lon;timestamp;P1;durP1;ratioP1;P2;durP2;ratioP2
13331;SDS011;6735;51.456;12.626;2024-03-23T00:55:58;22.63;;;12.77;;
13331;SDS011;6735;51.456;12.626;2024-03-23T00:58:24;21.37;;;13.17;;
13331;SDS011;6735;51.456;12.626;2024-03-23T01:00:50;23.00;;;12.83;;
13331;SDS011;6735;51.456;12.626;2024-03-23T01:03:15;22.00;;;13.23;;
13331;SDS011;6735;51.456;12.626;2024-03-23T01:05:40;23.03;;;12.03;;
13331;SDS011;6735;51.456;12.626;2024-03-23T01:08:06;22.80;;;12.70;;
13331;SDS011;6735;51.456;12.626;2024-03-23T01:10:31;22.27;;;12.77;;
13331;SDS011;6735;51.456;12.626;2024-03-23T01:12:57;25.20;;;14.33;;
13331;SDS011;6735;51.456;12.626;2024-03-23T01:15:22;22.63;;;13.33;;
13331;SDS011;6735;51.456;12.626;2024-03-23T01:17:48;24.43;;;13.23;;
13331;SDS011;6735;51.456;12.626;2024-03-23T01:20:13;25.67;;;14.30;;
13331;SDS011;6735;51.456;12.626;2024-03-23T01:22:39;25.53;;;14.93;;
13331;SDS011;6735;51.456;12.626;2024-03-23T01:25:05;25.37;;;14.40;;
13331;SDS011;6735;51.456;12.626;2024-03-23T01:27:30;27.13;;;13.83;;
13331;SDS011;6735;51.456;12.626;2024-03-23T01:29:56;25.80;;;13.90;;
13331;SDS011;6735;51.456;12.626;2024-03-23T01:32:21;28.73;;;15.93;;
13331;SDS011;6735;51.456;12.626;2024-03-23T01:34:47;27.27;;;15.10;;
13331;SDS011;6735;51.456;12.626;2024-03-23T01:37:12;31.97;;;16.53;;
13331;SDS011;6735;51.456;12.626;2024-03-23T01:39:37;24.43;;;15.43;;
13331;SDS011;6735;51.456;12.626;2024-03-23T01:42:04;26.37;;;14.70;;
13331;SDS011;6735;51.456;12.626;2024-03-23T01:44:29;25.23;;;14.23;;
13331;SDS011;6735;51.456;12.626;2024-03-23T01:46:55;23.67;;;13.87;;
13331;SDS011;6735;51.456;12.626;2024-03-23T01:49:20;23.47;;;13.10;;
13331;SDS011;6735;51.456;12.626;2024-03-23T01:51:46;21.60;;;12.00;;
13331;SDS011;6735;51.456;12.626;2024-03-23T01:54:11;19.27;;;11.73;;
13331;SDS011;6735;51.456;12.626;2024-03-23T01:56:37;17.47;;;10.83;;
13331;SDS011;6735;51.456;12.626;2024-03-23T01:59:03;15.97;;;8.43;;
13331;SDS011;6735;51.456;12.626;2024-03-23T02:01:30;14.97;;;8.37;;
13331;SDS011;6735;51.456;12.626;2024-03-23T02:03:55;14.90;;;8.57;;
13331;SDS011;6735;51.456;12.626;2024-03-23T02:06:21;11.37;;;7.97;;
13331;SDS011;6735;51.456;12.626;2024-03-23T02:08:47;11.47;;;8.13;;
13331;SDS011;6735;51.456;12.626;2024-03-23T02:11:13;11.20;;;6.30;;
13331;SDS011;6735;51.456;12.626;2024-03-23T02:13:38;11.00;;;5.90;;
13331;SDS011;6735;51.456;12.626;2024-03-23T02:16:05;8.47;;;6.03;;
13331;SDS011;6735;51.456;12.626;2024-03-23T02:18:30;9.23;;;5.33;;
13331;SDS011;6735;51.456;12.626;2024-03-23T02:20:56;9.90;;;5.37;;
13331;SDS011;6735;51.456;12.626;2024-03-23T02:23:22;7.57;;;5.00;;
13331;SDS011;6735;51.456;12.626;2024-03-23T02:25:49;10.63;;;5.53;;
13331;SDS011;6735;51.456;12.626;2024-03-23T02:28:14;8.90;;;4.80;;
13331;SDS011;6735;51.456;12.626;2024-03-23T02:30:40;7.00;;;4.70;;
13331;SDS011;6735;51.456;12.626;2024-03-23T02:33:05;8.67;;;4.60;;
13331;SDS011;6735;51.456;12.626;2024-03-23T02:35:31;6.30;;;5.00;;
13331;SDS011;6735;51.456;12.626;2024-03-23T02:37:57;8.10;;;5.23;;
13331;SDS011;6735;51.456;12.626;2024-03-23T02:40:22;7.77;;;4.50;;
13331;SDS011;6735;51.456;12.626;2024-03-23T02:42:48;7.73;;;4.40;;
13331;SDS011;6735;51.456;12.626;2024-03-23T02:45:14;8.17;;;4.00;;
13331;SDS011;6735;51.456;12.626;2024-03-23T02:47:39;7.90;;;4.67;;
13331;SDS011;6735;51.456;12.626;2024-03-23T02:50:05;7.50;;;4.47;;
13331;SDS011;6735;51.456;12.626;2024-03-23T02:52:31;8.20;;;5.47;;
13331;SDS011;6735;51.456;12.626;2024-03-23T02:54:57;7.20;;;4.03;;
13331;SDS011;6735;51.456;12.626;2024-03-23T02:57:22;7.50;;;4.57;;
13331;SDS011;6735;51.456;12.626;2024-03-23T02:59:48;6.83;;;4.20;;
13331;SDS011;6735;51.456;12.626;2024-03-23T03:02:14;6.77;;;3.73;;
13331;SDS011;6735;51.456;12.626;2024-03-23T03:04:40;5.57;;;3.80;;
13331;SDS011;6735;51.456;12.626;2024-03-23T03:07:05;5.43;;;4.00;;
13331;SDS011;6735;51.456;12.626;2024-03-23T03:09:31;5.60;;;3.83;;
13331;SDS011;6735;51.456;12.626;2024-03-23T03:11:57;5.57;;;3.97;;
13331;SDS011;6735;51.456;12.626;2024-03-23T03:14:23;7.60;;;4.13;;
13331;SDS011;6735;51.456;12.626;2024-03-23T03:16:48;3.97;;;3.57;;
13331;SDS011;6735;51.456;12.626;2024-03-23T03:19:14;4.37;;;3.47;;
13331;SDS011;6735;51.456;12.626;2024-03-23T03:21:41;9.37;;;3.80;;
13331;SDS011;6735;51.456;12.626;2024-03-23T03:24:07;5.20;;;3.60;;
13331;SDS011;6735;51.456;12.626;2024-03-23T03:26:32;6.23;;;3.77;;
13331;SDS011;6735;51.456;12.626;2024-03-23T03:28:58;6.77;;;3.70;;
13331;SDS011;6735;51.456;12.626;2024-03-23T03:31:23;8.20;;;4.00;;
13331;SDS011;6735;51.456;12.626;2024-03-23T03:33:49;5.50;;;3.50;;
13331;SDS011;6735;51.456;12.626;2024-03-23T03:36:16;10.00;;;4.47;;
13331;SDS011;6735;51.456;12.626;2024-03-23T03:38:41;5.70;;;3.83;;
13331;SDS011;6735;51.456;12.626;2024-03-23T03:41:07;5.00;;;3.63;;
13331;SDS011;6735;51.456;12.626;2024-03-23T03:43:32;5.17;;;3.40;;
13331;SDS011;6735;51.456;12.626;2024-03-23T03:45:58;6.77;;;3.93;;
13331;SDS011;6735;51.456;12.626;2024-03-23T03:48:25;4.97;;;3.20;;
13331;SDS011;6735;51.456;12.626;2024-03-23T03:50:51;7.33;;;3.77;;
13331;SDS011;6735;51.456;12.626;2024-03-23T03:53:17;7.23;;;3.70;;
13331;SDS011;6735;51.456;12.626;2024-03-23T03:55:42;6.17;;;3.60;;
13331;SDS011;6735;51.456;12.626;2024-03-23T03:58:07;4.50;;;3.50;;
13331;SDS011;6735;51.456;12.626;2024-03-23T04:00:33;5.17;;;3.37;;
13331;SDS011;6735;51.456;12.626;2024-03-23T04:02:58;4.97;;;3.70;;
13331;SDS011;6735;51.456;12.626;2024-03-23T04:05:24;4.13;;;3.40;;
13331;SDS011;6735;51.456;12.626;2024-03-23T04:07:49;6.23;;;3.83;;
13331;SDS011;6735;51.456;12.626;2024-03-23T04:10:15;5.77;;;3.70;;
13331;SDS011;6735;51.456;12.626;2024-03-23T04:12:41;4.97;;;3.63;;
13331;SDS011;6735;51.456;12.626;2024-03-23T04:15:08;6.03;;;3.60;;
13331;SDS011;6735;51.456;12.626;2024-03-23T04:17:34;6.50;;;3.63;;
13331;SDS011;6735;51.456;12.626;2024-03-23T04:20:01;6.00;;;3.40;;
13331;SDS011;6735;51.456;12.626;2024-03-23T04:22:28;3.73;;;3.20;;
13331;SDS011;6735;51.456;12.626;2024-03-23T04:24:54;8.63;;;3.77;;
13331;SDS011;6735;51.456;12.626;2024-03-23T04:27:25;5.33;;;3.83;;
13331;SDS011;6735;51.456;12.626;2024-03-23T04:29:50;6.80;;;3.80;;
13331;SDS011;6735;51.456;12.626;2024-03-23T04:32:16;4.30;;;3.70;;
13331;SDS011;6735;51.456;12.626;2024-03-23T04:34:43;4.50;;;3.33;;
13331;SDS011;6735;51.456;12.626;2024-03-23T04:37:09;5.50;;;3.63;;
13331;SDS011;6735;51.456;12.626;2024-03-23T04:39:35;6.37;;;3.60;;
13331;SDS011;6735;51.456;12.626;2024-03-23T04:42:01;5.93;;;3.43;;
13331;SDS011;6735;51.456;12.626;2024-03-23T04:44:27;5.70;;;3.67;;
13331;SDS011;6735;51.456;12.626;2024-03-23T04:46:53;7.43;;;3.60;;
13331;SDS011;6735;51.456;12.626;2024-03-23T04:49:18;6.00;;;3.40;;
13331;SDS011;6735;51.456;12.626;2024-03-23T04:51:44;4.63;;;3.50;;
13331;SDS011;6735;51.456;12.626;2024-03-23T04:54:11;3.77;;;3.17;;
13331;SDS011;6735;51.456;12.626;2024-03-23T04:56:37;6.00;;;3.47;;
13331;SDS011;6735;51.456;12.626;2024-03-23T04:59:02;6.27;;;3.60;;
13331;SDS011;6735;51.456;12.626;2024-03-23T05:01:29;4.80;;;3.30;;
13331;SDS011;6735;51.456;12.626;2024-03-23T05:03:56;4.93;;;3.60;;
13331;SDS011;6735;51.456;12.626;2024-03-23T05:06:22;4.10;;;3.23;;
13331;SDS011;6735;51.456;12.626;2024-03-23T05:08:47;5.20;;;3.13;;
13331;SDS011;6735;51.456;12.626;2024-03-23T05:11:13;6.80;;;3.90;;
13331;SDS011;6735;51.456;12.626;2024-03-23T05:13:39;7.00;;;4.33;;
13331;SDS011;6735;51.456;12.626;2024-03-23T05:16:04;5.57;;;3.80;;
13331;SDS011;6735;51.456;12.626;2024-03-23T05:18:30;5.13;;;4.07;;
13331;SDS011;6735;51.456;12.626;2024-03-23T05:20:57;5.53;;;3.63;;
13331;SDS011;6735;51.456;12.626;2024-03-23T05:23:23;7.33;;;4.57;;
13331;SDS011;6735;51.456;12.626;2024-03-23T05:25:53;8.87;;;5.50;;
13331;SDS011;6735;51.456;12.626;2024-03-23T05:28:18;9.23;;;5.90;;
13331;SDS011;6735;51.456;12.626;2024-03-23T05:30:44;11.37;;;6.60;;
13331;SDS011;6735;51.456;12.626;2024-03-23T05:33:18;12.93;;;6.10;;
13331;SDS011;6735;51.456;12.626;2024-03-23T05:35:44;9.97;;;5.80;;
13331;SDS011;6735;51.456;12.626;2024-03-23T05:38:10;13.70;;;5.73;;
13331;SDS011;6735;51.456;12.626;2024-03-23T05:40:35;10.47;;;6.60;;
13331;SDS011;6735;51.456;12.626;2024-03-23T05:43:02;13.57;;;7.33;;
13331;SDS011;6735;51.456;12.626;2024-03-23T05:45:28;11.80;;;6.60;;
13331;SDS011;6735;51.456;12.626;2024-03-23T05:47:54;15.63;;;7.50;;
13331;SDS011;6735;51.456;12.626;2024-03-23T05:50:21;11.03;;;7.03;;
13331;SDS011;6735;51.456;12.626;2024-03-23T05:52:47;13.43;;;7.43;;
13331;SDS011;6735;51.456;12.626;2024-03-23T05:55:13;13.10;;;7.80;;
13331;SDS011;6735;51.456;12.626;2024-03-23T05:57:38;13.77;;;7.87;;
13331;SDS011;6735;51.456;12.626;2024-03-23T06:00:04;11.27;;;7.30;;
13331;SDS011;6735;51.456;12.626;2024-03-23T06:02:35;13.37;;;8.20;;
13331;SDS011;6735;51.456;12.626;2024-03-23T06:05:00;13.63;;;7.53;;
13331;SDS011;6735;51.456;12.626;2024-03-23T06:07:27;12.87;;;7.70;;
13331;SDS011;6735;51.456;12.626;2024-03-23T06:09:52;14.77;;;7.33;;
13331;SDS011;6735;51.456;12.626;2024-03-23T06:12:18;14.87;;;8.03;;
13331;SDS011;6735;51.456;12.626;2024-03-23T06:14:43;19.03;;;9.23;;
13331;SDS011;6735;51.456;12.626;2024-03-23T06:17:09;16.43;;;7.87;;
13331;SDS011;6735;51.456;12.626;2024-03-23T06:19:34;13.67;;;7.63;;
13331;SDS011;6735;51.456;12.626;2024-03-23T06:22:00;13.13;;;7.37;;
13331;SDS011;6735;51.456;12.626;2024-03-23T06:24:25;13.40;;;6.90;;
13331;SDS011;6735;51.456;12.626;2024-03-23T06:26:50;10.13;;;6.40;;
13331;SDS011;6735;51.456;12.626;2024-03-23T06:29:16;13.07;;;7.93;;
13331;SDS011;6735;51.456;12.626;2024-03-23T06:31:41;9.50;;;6.50;;
13331;SDS011;6735;51.456;12.626;2024-03-23T06:34:07;12.10;;;6.10;;
13331;SDS011;6735;51.456;12.626;2024-03-23T06:36:32;8.47;;;6.00;;
13331;SDS011;6735;51.456;12.626;2024-03-23T06:38:58;7.00;;;5.17;;
13331;SDS011;6735;51.456;12.626;2024-03-23T06:41:24;7.40;;;5.03;;
13331;SDS011;6735;51.456;12.626;2024-03-23T06:43:50;10.23;;;6.50;;
13331;SDS011;6735;51.456;12.626;2024-03-23T06:46:15;9.40;;;5.70;;
13331;SDS011;6735;51.456;12.626;2024-03-23T06:48:41;11.67;;;7.07;;
13331;SDS011;6735;51.456;12.626;2024-03-23T06:51:06;11.07;;;5.80;;
13331;SDS011;6735;51.456;12.626;2024-03-23T06:53:31;10.17;;;6.07;;
13331;SDS011;6735;51.456;12.626;2024-03-23T06:55:57;11.50;;;5.63;;
13331;SDS011;6735;51.456;12.626;2024-03-23T06:58:24;13.10;;;5.87;;
13331;SDS011;6735;51.456;12.626;2024-03-23T07:00:50;10.43;;;5.47;;
13331;SDS011;6735;51.456;12.626;2024-03-23T07:03:18;10.37;;;5.93;;
13331;SDS011;6735;51.456;12.626;2024-03-23T07:05:44;13.13;;;6.80;;
13331;SDS011;6735;51.456;12.626;2024-03-23T07:08:11;12.63;;;6.27;;
13331;SDS011;6735;51.456;12.626;2024-03-23T07:10:39;14.00;;;7.67;;
13331;SDS011;6735;51.456;12.626;2024-03-23T07:13:05;15.70;;;8.17;;
13331;SDS011;6735;51.456;12.626;2024-03-23T07:15:30;13.17;;;7.40;;
13331;SDS011;6735;51.456;12.626;2024-03-23T07:17:56;12.60;;;6.03;;
13331;SDS011;6735;51.456;12.626;2024-03-23T07:20:21;11.13;;;4.80;;
13331;SDS011;6735;51.456;12.626;2024-03-23T07:22:47;13.23;;;5.97;;
13331;SDS011;6735;51.456;12.626;2024-03-23T07:25:12;11.47;;;5.47;;
13331;SDS011;6735;51.456;12.626;2024-03-23T07:27:38;10.97;;;4.73;;
13331;SDS011;6735;51.456;12.626;2024-03-23T07:30:03;9.33;;;4.80;;
13331;SDS011;6735;51.456;12.626;2024-03-23T07:32:29;6.60;;;3.87;;
13331;SDS011;6735;51.456;12.626;2024-03-23T07:34:55;7.17;;;3.47;;
13331;SDS011;6735;51.456;12.626;2024-03-23T07:37:20;7.53;;;4.37;;
13331;SDS011;6735;51.456;12.626;2024-03-23T07:39:46;9.93;;;3.60;;
13331;SDS011;6735;51.456;12.626;2024-03-23T07:42:11;6.87;;;2.97;;
13331;SDS011;6735;51.456;12.626;2024-03-23T07:44:36;6.37;;;3.07;;
13331;SDS011;6735;51.456;12.626;2024-03-23T07:47:03;9.83;;;3.60;;
13331;SDS011;6735;51.456;12.626;2024-03-23T07:49:28;7.57;;;3.40;;
13331;SDS011;6735;51.456;12.626;2024-03-23T07:51:54;8.17;;;3.73;;
13331;SDS011;6735;51.456;12.626;2024-03-23T07:54:20;11.13;;;3.23;;
13331;SDS011;6735;51.456;12.626;2024-03-23T07:56:45;4.63;;;3.10;;
13331;SDS011;6735;51.456;12.626;2024-03-23T07:59:11;9.43;;;3.80;;
13331;SDS011;6735;51.456;12.626;2024-03-23T08:01:36;7.40;;;3.13;;
13331;SDS011;6735;51.456;12.626;2024-03-23T08:04:01;5.80;;;2.50;;
13331;SDS011;6735;51.456;12.626;2024-03-23T08:06:27;3.63;;;2.33;;
13331;SDS011;6735;51.456;12.626;2024-03-23T08:08:54;4.20;;;1.97;;
13331;SDS011;6735;51.456;12.626;2024-03-23T08:11:27;4.90;;;2.50;;
13331;SDS011;6735;51.456;12.626;2024-03-23T08:13:53;4.10;;;2.73;;
13331;SDS011;6735;51.456;12.626;2024-03-23T08:16:19;3.30;;;2.30;;
13331;SDS011;6735;51.456;12.626;2024-03-23T08:18:45;4.47;;;1.93;;
13331;SDS011;6735;51.456;12.626;2024-03-23T08:21:10;1.70;;;1.40;;
13331;SDS011;6735;51.456;12.626;2024-03-23T08:23:36;1.50;;;1.40;;
13331;SDS011;6735;51.456;12.626;2024-03-23T08:26:05;1.30;;;1.20;;
13331;SDS011;6735;51.456;12.626;2024-03-23T08:28:32;1.73;;;1.63;;
13331;SDS011;6735;51.456;12.626;2024-03-23T08:31:00;1.57;;;1.43;;
13331;SDS011;6735;51.456;12.626;2024-03-23T08:33:27;1.63;;;1.33;;
13331;SDS011;6735;51.456;12.626;2024-03-23T08:35:53;1.17;;;1.10;;
13331;SDS011;6735;51.456;12.626;2024-03-23T08:38:26;2.50;;;1.40;;
13331;SDS011;6735;51.456;12.626;2024-03-23T08:41:02;2.47;;;1.40;;
13331;SDS011;6735;51.456;12.626;2024-03-23T08:43:29;2.90;;;1.70;;
13331;SDS011;6735;51.456;12.626;2024-03-23T08:46:11;2.03;;;1.30;;
13331;SDS011;6735;51.456;12.626;2024-03-23T08:48:39;1.30;;;1.23;;
13331;SDS011;6735;51.456;12.626;2024-03-23T08:51:05;1.33;;;1.23;;
13331;SDS011;6735;51.456;12.626;2024-03-23T08:53:32;1.03;;;0.90;;
13331;SDS011;6735;51.456;12.626;2024-03-23T08:55:59;1.67;;;1.30;;
13331;SDS011;6735;51.456;12.626;2024-03-23T08:58:26;1.00;;;1.00;;
13331;SDS011;6735;51.456;12.626;2024-03-23T09:00:52;1.63;;;0.93;;
13331;SDS011;6735;51.456;12.626;2024-03-23T09:03:21;1.47;;;1.33;;
13331;SDS011;6735;51.456;12.626;2024-03-23T09:05:49;1.57;;;1.47;;
13331;SDS011;6735;51.456;12.626;2024-03-23T09:08:15;1.60;;;1.50;;
13331;SDS011;6735;51.456;12.626;2024-03-23T09:10:42;1.57;;;1.30;;
13331;SDS011;6735;51.456;12.626;2024-03-23T09:13:07;1.27;;;1.13;;
13331;SDS011;6735;51.456;12.626;2024-03-23T09:15:34;1.10;;;1.10;;
13331;SDS011;6735;51.456;12.626;2024-03-23T09:18:01;1.80;;;1.40;;
13331;SDS011;6735;51.456;12.626;2024-03-23T09:20:27;2.17;;;1.33;;
13331;SDS011;6735;51.456;12.626;2024-03-23T09:22:52;2.47;;;1.57;;
13331;SDS011;6735;51.456;12.626;2024-03-23T09:25:18;1.20;;;1.20;;
13331;SDS011;6735;51.456;12.626;2024-03-23T09:27:45;2.67;;;2.47;;
13331;SDS011;6735;51.456;12.626;2024-03-23T09:30:12;2.10;;;1.27;;
13331;SDS011;6735;51.456;12.626;2024-03-23T09:32:38;1.10;;;1.10;;
13331;SDS011;6735;51.456;12.626;2024-03-23T09:35:04;1.40;;;1.30;;
13331;SDS011;6735;51.456;12.626;2024-03-23T09:37:30;1.53;;;1.43;;
13331;SDS011;6735;51.456;12.626;2024-03-23T09:39:55;1.10;;;1.10;;
13331;SDS011;6735;51.456;12.626;2024-03-23T09:42:20;1.27;;;1.17;;
13331;SDS011;6735;51.456;12.626;2024-03-23T09:44:46;3.60;;;1.67;;
13331;SDS011;6735;51.456;12.626;2024-03-23T09:47:15;1.70;;;1.40;;
13331;SDS011;6735;51.456;12.626;2024-03-23T09:49:41;1.40;;;1.30;;
13331;SDS011;6735;51.456;12.626;2024-03-23T09:52:07;1.67;;;1.57;;
13331;SDS011;6735;51.456;12.626;2024-03-23T09:54:32;1.27;;;1.23;;
13331;SDS011;6735;51.456;12.626;2024-03-23T09:56:58;1.50;;;1.40;;
13331;SDS011;6735;51.456;12.626;2024-03-23T09:59:23;2.83;;;1.40;;
13331;SDS011;6735;51.456;12.626;2024-03-23T10:01:51;1.70;;;1.50;;
13331;SDS011;6735;51.456;12.626;2024-03-23T10:07:12;1.30;;;1.20;;
13331;SDS011;6735;51.456;12.626;2024-03-23T10:09:44;2.00;;;1.10;;
13331;SDS011;6735;51.456;12.626;2024-03-23T10:12:12;1.73;;;1.20;;
13331;SDS011;6735;51.456;12.626;2024-03-23T10:14:42;1.67;;;1.40;;
13331;SDS011;6735;51.456;12.626;2024-03-23T10:17:11;1.30;;;1.20;;
13331;SDS011;6735;51.456;12.626;2024-03-23T10:19:39;2.93;;;1.37;;
13331;SDS011;6735;51.456;12.626;2024-03-23T10:22:06;1.70;;;1.53;;
13331;SDS011;6735;51.456;12.626;2024-03-23T10:24:31;2.63;;;1.53;;
13331;SDS011;6735;51.456;12.626;2024-03-23T10:26:57;2.07;;;1.50;;
13331;SDS011;6735;51.456;12.626;2024-03-23T10:29:22;1.90;;;1.47;;
13331;SDS011;6735;51.456;12.626;2024-03-23T10:31:48;2.10;;;1.80;;
13331;SDS011;6735;51.456;12.626;2024-03-23T10:34:14;1.70;;;1.60;;
13331;SDS011;6735;51.456;12.626;2024-03-23T10:36:40;2.53;;;1.70;;
13331;SDS011;6735;51.456;12.626;2024-03-23T10:39:07;2.13;;;1.60;;
13331;SDS011;6735;51.456;12.626;2024-03-23T10:41:33;2.10;;;1.50;;
13331;SDS011;6735;51.456;12.626;2024-03-23T10:43:59;3.30;;;1.80;;
13331;SDS011;6735;51.456;12.626;2024-03-23T10:46:26;2.27;;;1.80;;
13331;SDS011;6735;51.456;12.626;2024-03-23T10:48:52;3.90;;;2.00;;
13331;SDS011;6735;51.456;12.626;2024-03-23T10:51:18;1.93;;;1.50;;
13331;SDS011;6735;51.456;12.626;2024-03-23T10:53:43;2.10;;;2.00;;
13331;SDS011;6735;51.456;12.626;2024-03-23T10:56:11;2.27;;;2.17;;
13331;SDS011;6735;51.456;12.626;2024-03-23T10:58:39;2.27;;;2.03;;
13331;SDS011;6735;51.456;12.626;2024-03-23T11:01:07;3.60;;;2.10;;
13331;SDS011;6735;51.456;12.626;2024-03-23T11:03:37;1.80;;;1.60;;
13331;SDS011;6735;51.456;12.626;2024-03-23T11:06:03;2.97;;;2.10;;
13331;SDS011;6735;51.456;12.626;2024-03-23T11:08:40;2.23;;;2.03;;
13331;SDS011;6735;51.456;12.626;2024-03-23T11:11:13;2.27;;;1.77;;
13331;SDS011;6735;51.456;12.626;2024-03-23T11:13:44;1.77;;;1.50;;
13331;SDS011;6735;51.456;12.626;2024-03-23T11:16:16;2.20;;;1.80;;
13331;SDS011;6735;51.456;12.626;2024-03-23T11:18:49;2.10;;;1.90;;
13331;SDS011;6735;51.456;12.626;2024-03-23T11:24:19;1.70;;;1.60;;
13331;SDS011;6735;51.456;12.626;2024-03-23T11:26:45;3.60;;;2.50;;
13331;SDS011;6735;51.456;12.626;2024-03-23T11:29:12;2.27;;;1.80;;
13331;SDS011;6735;51.456;12.626;2024-03-23T11:31:45;5.07;;;2.97;;
13331;SDS011;6735;51.456;12.626;2024-03-23T11:34:18;4.50;;;2.10;;
13331;SDS011;6735;51.456;12.626;2024-03-23T11:36:44;3.77;;;2.10;;
13331;SDS011;6735;51.456;12.626;2024-03-23T11:39:11;3.20;;;2.00;;
13331;SDS011;6735;51.456;12.626;2024-03-23T11:44:30;3.07;;;2.43;;
13331;SDS011;6735;51.456;12.626;2024-03-23T11:47:07;6.70;;;2.40;;
13331;SDS011;6735;51.456;12.626;2024-03-23T11:49:33;5.43;;;3.07;;
13331;SDS011;6735;51.456;12.626;2024-03-23T11:51:58;3.27;;;2.83;;
13331;SDS011;6735;51.456;12.626;2024-03-23T11:54:25;2.80;;;2.10;;
13331;SDS011;6735;51.456;12.626;2024-03-23T11:56:55;2.57;;;2.37;;
13331;SDS011;6735;51.456;12.626;2024-03-23T11:59:35;5.03;;;2.70;;
13331;SDS011;6735;51.456;12.626;2024-03-23T12:02:06;3.77;;;2.50;;
13331;SDS011;6735;51.456;12.626;2024-03-23T12:04:33;3.17;;;2.30;;
13331;SDS011;6735;51.456;12.626;2024-03-23T12:07:10;4.63;;;2.90;;
13331;SDS011;6735;51.456;12.626;2024-03-23T12:09:40;2.87;;;2.60;;
13331;SDS011;6735;51.456;12.626;2024-03-23T12:12:16;7.07;;;2.57;;
13331;SDS011;6735;51.456;12.626;2024-03-23T12:14:43;3.17;;;2.10;;
13331;SDS011;6735;51.456;12.626;2024-03-23T12:17:13;4.23;;;2.30;;
13331;SDS011;6735;51.456;12.626;2024-03-23T12:19:39;4.03;;;2.13;;
13331;SDS011;6735;51.456;12.626;2024-03-23T12:22:09;3.40;;;2.00;;
13331;SDS011;6735;51.456;12.626;2024-03-23T12:24:35;3.10;;;1.73;;
13331;SDS011;6735;51.456;12.626;2024-03-23T12:27:04;5.13;;;2.27;;
13331;SDS011;6735;51.456;12.626;2024-03-23T12:29:30;7.77;;;2.70;;
13331;SDS011;6735;51.456;12.626;2024-03-23T12:31:59;5.67;;;2.37;;
13331;SDS011;6735;51.456;12.626;2024-03-23T12:34:26;5.07;;;2.40;;
13331;SDS011;6735;51.456;12.626;2024-03-23T12:36:52;3.63;;;1.80;;
13331;SDS011;6735;51.456;12.626;2024-03-23T12:39:17;4.70;;;1.80;;
13331;SDS011;6735;51.456;12.626;2024-03-23T12:41:43;3.93;;;2.30;;
13331;SDS011;6735;51.456;12.626;2024-03-23T12:44:09;9.17;;;2.43;;
13331;SDS011;6735;51.456;12.626;2024-03-23T12:46:36;7.53;;;2.33;;
13331;SDS011;6735;51.456;12.626;2024-03-23T12:49:02;3.73;;;1.70;;
13331;SDS011;6735;51.456;12.626;2024-03-23T12:51:28;4.43;;;2.23;;
13331;SDS011;6735;51.456;12.626;2024-03-23T12:53:53;8.03;;;3.27;;
13331;SDS011;6735;51.456;12.626;2024-03-23T12:56:19;9.33;;;3.17;;
13331;SDS011;6735;51.456;12.626;2024-03-23T12:58:44;5.33;;;1.70;;
13331;SDS011;6735;51.456;12.626;2024-03-23T13:01:10;3.30;;;1.93;;
13331;SDS011;6735;51.456;12.626;2024-03-23T13:03:35;4.20;;;1.93;;
13331;SDS011;6735;51.456;12.626;2024-03-23T13:06:01;14.37;;;2.30;;
13331;SDS011;6735;51.456;12.626;2024-03-23T13:08:26;4.00;;;1.63;;
13331;SDS011;6735;51.456;12.626;2024-03-23T13:10:52;3.83;;;1.60;;
13331;SDS011;6735;51.456;12.626;2024-03-23T13:13:17;2.63;;;1.90;;
13331;SDS011;6735;51.456;12.626;2024-03-23T13:15:49;2.47;;;1.87;;
13331;SDS011;6735;51.456;12.626;2024-03-23T13:18:17;2.37;;;1.60;;
13331;SDS011;6735;51.456;12.626;2024-03-23T13:20:43;2.07;;;1.93;;
13331;SDS011;6735;51.456;12.626;2024-03-23T13:23:09;4.17;;;2.10;;
13331;SDS011;6735;51.456;12.626;2024-03-23T13:25:34;2.57;;;2.00;;
13331;SDS011;6735;51.456;12.626;2024-03-23T13:28:00;4.73;;;2.40;;
13331;SDS011;6735;51.456;12.626;2024-03-23T13:30:26;5.37;;;2.40;;
13331;SDS011;6735;51.456;12.626;2024-03-23T13:32:51;2.47;;;2.27;;
13331;SDS011;6735;51.456;12.626;2024-03-23T13:35:17;2.33;;;2.13;;
13331;SDS011;6735;51.456;12.626;2024-03-23T13:37:43;5.73;;;2.07;;
13331;SDS011;6735;51.456;12.626;2024-03-23T13:40:08;3.00;;;2.17;;
13331;SDS011;6735;51.456;12.626;2024-03-23T13:42:34;5.47;;;2.93;;
13331;SDS011;6735;51.456;12.626;2024-03-23T13:44:59;2.50;;;2.13;;
13331;SDS011;6735;51.456;12.626;2024-03-23T13:47:25;3.63;;;2.07;;
13331;SDS011;6735;51.456;12.626;2024-03-23T13:49:50;2.50;;;2.30;;
13331;SDS011;6735;51.456;12.626;2024-03-23T13:52:16;3.60;;;2.40;;
13331;SDS011;6735;51.456;12.626;2024-03-23T13:54:43;5.00;;;2.50;;
13331;SDS011;6735;51.456;12.626;2024-03-23T13:57:11;4.00;;;2.60;;
13331;SDS011;6735;51.456;12.626;2024-03-23T13:59:36;5.53;;;2.80;;
13331;SDS011;6735;51.456;12.626;2024-03-23T14:02:02;6.07;;;2.60;;
13331;SDS011;6735;51.456;12.626;2024-03-23T14:04:27;4.73;;;2.60;;
13331;SDS011;6735;51.456;12.626;2024-03-23T14:06:53;3.77;;;2.40;;
13331;SDS011;6735;51.456;12.626;2024-03-23T14:09:19;4.37;;;2.43;;
13331;SDS011;6735;51.456;12.626;2024-03-23T14:11:47;6.47;;;2.50;;
13331;SDS011;6735;51.456;12.626;2024-03-23T14:14:13;2.57;;;2.37;;
13331;SDS011;6735;51.456;12.626;2024-03-23T14:16:42;4.27;;;2.83;;
13331;SDS011;6735;51.456;12.626;2024-03-23T14:19:09;3.33;;;2.20;;
13331;SDS011;6735;51.456;12.626;2024-03-23T14:21:34;4.17;;;2.07;;
13331;SDS011;6735;51.456;12.626;2024-03-23T14:24:00;3.63;;;2.33;;
13331;SDS011;6735;51.456;12.626;2024-03-23T14:26:26;3.97;;;2.30;;
13331;SDS011;6735;51.456;12.626;2024-03-23T14:28:52;2.70;;;2.30;;
13331;SDS011;6735;51.456;12.626;2024-03-23T14:31:17;3.13;;;2.50;;
13331;SDS011;6735;51.456;12.626;2024-03-23T14:33:43;5.10;;;2.60;;
13331;SDS011;6735;51.456;12.626;2024-03-23T14:36:15;2.83;;;2.23;;
13331;SDS011;6735;51.456;12.626;2024-03-23T14:38:47;6.23;;;3.23;;
13331;SDS011;6735;51.456;12.626;2024-03-23T14:41:13;7.37;;;2.80;;
13331;SDS011;6735;51.456;12.626;2024-03-23T14:43:38;5.43;;;2.43;;
13331;SDS011;6735;51.456;12.626;2024-03-23T14:46:08;3.07;;;2.60;;
13331;SDS011;6735;51.456;12.626;2024-03-23T14:48:34;1.80;;;1.70;;
13331;SDS011;6735;51.456;12.626;2024-03-23T14:51:01;4.73;;;2.13;;
13331;SDS011;6735;51.456;12.626;2024-03-23T14:53:30;2.10;;;1.63;;
13331;SDS011;6735;51.456;12.626;2024-03-23T14:55:57;3.53;;;2.60;;
13331;SDS011;6735;51.456;12.626;2024-03-23T14:58:22;5.27;;;2.40;;
13331;SDS011;6735;51.456;12.626;2024-03-23T15:00:49;3.17;;;2.60;;
13331;SDS011;6735;51.456;12.626;2024-03-23T15:03:15;2.70;;;2.50;;
13331;SDS011;6735;51.456;12.626;2024-03-23T15:05:40;6.07;;;3.43;;
13331;SDS011;6735;51.456;12.626;2024-03-23T15:08:06;4.47;;;2.90;;
13331;SDS011;6735;51.456;12.626;2024-03-23T15:10:34;5.63;;;3.47;;
13331;SDS011;6735;51.456;12.626;2024-03-23T15:13:00;3.13;;;2.77;;
13331;SDS011;6735;51.456;12.626;2024-03-23T15:15:25;4.33;;;3.10;;
13331;SDS011;6735;51.456;12.626;2024-03-23T15:17:51;3.57;;;2.97;;
13331;SDS011;6735;51.456;12.626;2024-03-23T15:20:16;5.13;;;3.17;;
13331;SDS011;6735;51.456;12.626;2024-03-23T15:22:42;6.47;;;3.93;;
13331;SDS011;6735;51.456;12.626;2024-03-23T15:25:08;6.17;;;3.60;;
13331;SDS011;6735;51.456;12.626;2024-03-23T15:27:33;4.87;;;3.27;;
13331;SDS011;6735;51.456;12.626;2024-03-23T15:29:59;6.00;;;3.63;;
13331;SDS011;6735;51.456;12.626;2024-03-23T15:32:24;3.83;;;3.23;;
13331;SDS011;6735;51.456;12.626;2024-03-23T15:34:50;4.73;;;3.10;;
13331;SDS011;6735;51.456;12.626;2024-03-23T15:37:16;3.70;;;3.10;;
13331;SDS011;6735;51.456;12.626;2024-03-23T15:39:42;4.17;;;2.90;;
13331;SDS011;6735;51.456;12.626;2024-03-23T15:42:08;3.40;;;2.90;;